Flight Track Log - Related Links

Times and Time Zones

All times are in EDT time to prevent confusion due to time zone crossing. See the UAL4180 flight status page for this flight to view local times or setup timezone preferences in your user account.


Time Position Orientation Groundspeed Altitude Reporting Facility
EDT Latitude Longitude Course Direction KTS MPH feet Rate Location/Type
Tue 09:24:12 PM 43.6667 -79.5833 44° Northeast 70 81 1,300  Level Toronto Center
Tue 09:25:12 PM 43.7167 -79.5167 44° Northeast 220 253 3,600 2,400 Climbing Toronto Center
Tue 09:26:12 PM 43.7333 -79.4500 71° East 270 311 6,100 1,650 Climbing Toronto Center
Tue 09:27:12 PM 43.7000 -79.3500 115° Southeast 270 311 6,900 850 Climbing Toronto Center
Tue 09:28:12 PM 43.6500 -79.2833 136° Southeast 270 311 7,800 2,000 Climbing Toronto Center
Tue 09:29:12 PM 43.6000 -79.2000 130° Southeast 280 322 10,900 2,300 Climbing Toronto Center
Tue 09:30:12 PM 43.5500 -79.1000 125° Southeast 300 345 12,400 1,300 Climbing Toronto Center
Tue 09:31:12 PM 43.4833 -78.9833 128° Southeast 360 414 13,500 1,350 Climbing Toronto Center
Tue 09:32:12 PM 43.4167 -78.8833 133° Southeast 380 437 15,100 1,600 Climbing Toronto Center
Tue 09:33:12 PM 43.3500 -78.7333 121° Southeast 400 460 16,700 1,550 Climbing Toronto Center
Tue 09:34:12 PM 43.2833 -78.6333 132° Southeast 400 460 18,200 1,500 Climbing Toronto Center
Tue 09:35:12 PM 43.2333 -78.5167 120° Southeast 410 472 19,700 1,550 Climbing Toronto Center
Tue 09:36:12 PM 43.1333 -78.3833 136° Southeast 410 472 21,300 1,550 Climbing Toronto Center
Tue 09:37:12 PM 43.0833 -78.2333 114° Southeast 410 472 22,800 1,300 Climbing Toronto Center
Tue 09:38:12 PM 42.9833 -78.1500 149° Southeast 410 472 23,900 1,000 Climbing Toronto Center
Tue 09:39:12 PM 42.9000 -78.0333 134° Southeast 420 483 24,800 1,200 Climbing Toronto Center
Tue 09:40:12 PM 42.8167 -77.9333 139° Southeast 430 495 26,300 1,100 Climbing Toronto Center
Tue 09:41:12 PM 42.7833 -77.7667 105° East 450 518 27,000 350 Climbing Toronto Center
Tue 09:42:12 PM 42.7667 -77.5833 97° East 470 541 27,000  Level Toronto Center
Tue 09:43:12 PM 42.7500 -77.4167 98° East 490 564 27,000  Level Toronto Center
Tue 09:43:40 PM 42.7406 -77.3461 100° East 467 537 27,000  Level Boston Center
Tue 09:44:40 PM 42.7225 -77.1806 98° East 467 537 27,000  Level Boston Center
Tue 09:45:40 PM 42.7011 -76.9953 99° East 485 558 27,000  Level Boston Center
Tue 09:46:40 PM 42.6811 -76.8128 98° East 490 564 27,000  Level Boston Center
Tue 09:47:39 PM 42.6544 -76.6300 101° East 490 564 27,000  Level Boston Center
Tue 09:48:40 PM 42.5894 -76.4706 119° Southeast 485 558 27,000 -149 Level Boston Center
Tue 09:49:40 PM 42.5178 -76.3139 122° Southeast 480 552 26,700 -650 Descending Boston Center
Tue 09:50:40 PM 42.4403 -76.1372 121° Southeast 488 562 25,700 -1,050 Descending Boston Center
Tue 09:51:40 PM 42.3700 -75.9842 122° Southeast 493 567 24,600 -1,311 Descending Boston Center
Tue 09:52:39 PM 42.3036 -75.8372 121° Southeast 482 555 23,100 -1,550 Descending Boston Center
Tue 09:53:40 PM 42.2469 -75.7133 122° Southeast 454 522 21,500 -1,350 Descending Boston Center
Tue 09:54:39 PM 42.1881 -75.5814 121° Southeast 434 499 20,400 -1,008 Descending Boston Center
Tue 09:55:39 PM 42.1247 -75.4522 123° Southeast 414 476 19,500 -1,050 Descending Boston Center
Tue 09:56:39 PM 42.0658 -75.3181 121° Southeast 414 476 18,300 -750 Descending Boston Center
Tue 09:57:39 PM 42.0128 -75.1814 118° Southeast 414 476 18,000 -149 Descending Boston Center
Tue 09:58:40 PM 41.9597 -75.0450 118° Southeast 414 476 18,000  Level Boston Center
Tue 09:59:39 PM 41.9047 -74.8978 117° Southeast 409 471 18,000 -353 Level Boston Center
Tue 10:00:39 PM 41.8575 -74.7731 117° Southeast 409 471 17,300 -1,200 Descending Boston Center
Tue 10:01:39 PM 41.8000 -74.6261 118° Southeast 402 463 15,600 -1,686 Descending Boston Center
Tue 10:02:40 PM 41.7561 -74.5106 117° Southeast 397 457 13,900 -1,900 Descending Boston Center
Tue 10:03:39 PM 41.6789 -74.4081 135° Southeast 354 407 11,800 -1,750 Descending Boston Center
Tue 10:04:40 PM 41.6019 -74.3972 174° South 314 361 10,400 -1,736 Descending Boston Center
Tue 10:05:40 PM 41.5122 -74.3944 179° South 295 339 8,300 -1,179 Descending Boston Center
Tue 10:07:33 PM 41.3667 -74.4167 187° South 289 333 7,000 -451 Descending New York TRACON
Tue 10:08:33 PM 41.2833 -74.4500 197° South 282 325 7,000  Level New York TRACON
Tue 10:09:33 PM 41.2167 -74.4833 201° Southwest 283 326 7,000  Level New York TRACON
Tue 10:10:33 PM 41.1333 -74.5000 189° South 286 329 7,000 -500 Level New York TRACON
Tue 10:11:33 PM 41.0667 -74.5333 201° Southwest 277 319 6,000 -1,000 Descending New York TRACON
Tue 10:12:33 PM 41.0000 -74.5500 191° South 261 300 5,000 -500 Descending New York TRACON
Tue 10:13:33 PM 40.9167 -74.5500 180° South 262 302 5,000  Level New York TRACON
Tue 10:14:33 PM 40.8500 -74.5500 180° South 237 273 5,000  Level New York TRACON
Tue 10:15:33 PM 40.7833 -74.5333 169° South 233 268 5,000  Level New York TRACON
Tue 10:16:33 PM 40.7167 -74.5333 180° South 236 272 5,000  Level New York TRACON
Tue 10:17:34 PM 40.6500 -74.5333 180° South 237 273 5,000  Level New York TRACON
Tue 10:18:34 PM 40.5833 -74.5333 180° South 236 272 5,000  Level New York TRACON
Tue 10:19:34 PM 40.5333 -74.5000 153° Southeast 237 273 5,000 -400 Level New York TRACON
Tue 10:20:34 PM 40.4667 -74.4500 150° Southeast 239 275 4,200 -500 Descending New York TRACON
Tue 10:21:34 PM 40.4167 -74.4000 143° Southeast 221 254 4,000 -500 Descending New York TRACON
Tue 10:22:34 PM 40.4000 -74.3500 114° Southeast 214 246 3,200 -500 Descending New York TRACON
Tue 10:23:34 PM 40.4500 -74.3167 27° Northeast 171 197 3,000 -99 Descending New York TRACON
Tue 10:24:35 PM 40.4833 -74.3000 21° North 165 190 3,000  Level New York TRACON
Tue 10:25:34 PM 40.5333 -74.2667 27° Northeast 165 190 3,000 -200 Level New York TRACON
Tue 10:26:35 PM 40.5667 -74.2500 21° North 161 185 2,600 -645 Descending New York TRACON
Tue 10:27:35 PM 40.6000 -74.2167 37° Northeast 161 185 1,700 -900 Descending New York TRACON

Login

Don't have an account? Register now (free) for customized features, flight alerts, and more!